createdAt,value
2023-07-04T00:01:47.408Z,97574.00
2023-07-04T00:05:49.609Z,97568.00
2023-07-04T00:09:50.649Z,97562.00
2023-07-04T00:13:52.154Z,97554.00
2023-07-04T00:17:53.442Z,97552.00
2023-07-04T00:21:55.088Z,97558.00
2023-07-04T00:25:56.951Z,97549.00
2023-07-04T00:29:59.347Z,97558.00
2023-07-04T00:34:00.523Z,97555.00
2023-07-04T00:38:01.723Z,97564.00
2023-07-04T00:42:04.918Z,97559.00
2023-07-04T00:46:08.444Z,97564.00
2023-07-04T00:50:13.475Z,97571.00
2023-07-04T00:54:16.537Z,97592.00
2023-07-04T00:58:18.418Z,97564.00
2023-07-04T01:02:22.947Z,97569.00
2023-07-04T01:06:35.596Z,97436.00
2023-07-04T01:10:44.000Z,97570.00
2023-07-04T01:14:45.072Z,97572.00
2023-07-04T01:18:58.581Z,97573.00
2023-07-04T01:23:12.513Z,97573.00
2023-07-04T01:27:15.576Z,97580.00
2023-07-04T01:31:16.984Z,97581.00
2023-07-04T01:35:18.678Z,97586.00
2023-07-04T01:39:20.230Z,97587.00
2023-07-04T01:43:21.449Z,97589.00
2023-07-04T01:47:22.761Z,97592.00
2023-07-04T01:51:29.910Z,97590.00
2023-07-04T01:55:31.036Z,97597.00
2023-07-04T01:59:32.175Z,97467.00
2023-07-04T02:03:33.415Z,97605.00
2023-07-04T02:07:34.536Z,97603.00
2023-07-04T02:11:35.735Z,97603.00
2023-07-04T02:15:36.831Z,97606.00
2023-07-04T02:19:38.174Z,97599.00
2023-07-04T02:23:39.421Z,97611.00
2023-07-04T02:27:41.362Z,97618.00
2023-07-04T02:31:42.694Z,97622.00
2023-07-04T02:35:46.529Z,97616.00
2023-07-04T02:39:47.516Z,97616.00
2023-07-04T02:43:48.659Z,97611.00
2023-07-04T02:47:49.656Z,97611.00
2023-07-04T02:51:50.790Z,97607.00
2023-07-04T02:55:53.551Z,97605.00
2023-07-04T02:59:55.869Z,97605.00
2023-07-04T03:03:57.120Z,97609.00
2023-07-04T03:07:58.523Z,97612.00
2023-07-04T03:11:59.627Z,97604.00
2023-07-04T03:16:00.625Z,97605.00
2023-07-04T03:20:03.688Z,97610.00
2023-07-04T03:24:05.102Z,97613.00
2023-07-04T03:28:06.109Z,97607.00
2023-07-04T03:32:07.698Z,97618.00
2023-07-04T03:36:08.846Z,97617.00
2023-07-04T03:40:11.456Z,97621.00
2023-07-04T03:44:12.594Z,97625.00
2023-07-04T03:48:14.078Z,97616.00
2023-07-04T03:52:15.349Z,97625.00
2023-07-04T03:56:16.480Z,97633.00
2023-07-04T04:00:18.171Z,97640.00
2023-07-04T04:04:20.722Z,97642.00
2023-07-04T04:08:22.157Z,97648.00
2023-07-04T04:12:23.132Z,97642.00
2023-07-04T04:16:24.340Z,97652.00
2023-07-04T04:20:26.426Z,97653.00
2023-07-04T04:24:27.983Z,97647.00
2023-07-04T04:28:29.523Z,97656.00
2023-07-04T04:32:31.476Z,97665.00
2023-07-04T04:36:33.659Z,97660.00
2023-07-04T04:40:34.779Z,97663.00
2023-07-04T04:44:37.835Z,97667.00
2023-07-04T04:48:38.877Z,97671.00
2023-07-04T04:52:41.764Z,97674.00
2023-07-04T04:56:44.807Z,97673.00
2023-07-04T05:00:45.934Z,97671.00
2023-07-04T05:05:07.116Z,97680.00
2023-07-04T05:09:08.260Z,97679.00
2023-07-04T05:13:09.249Z,97683.00
2023-07-04T05:17:10.353Z,97682.00
2023-07-04T05:21:14.923Z,97680.00
2023-07-04T05:25:16.260Z,97675.00
2023-07-04T05:29:17.242Z,97681.00
2023-07-04T05:33:18.375Z,97682.00
2023-07-04T05:37:19.528Z,97681.00
2023-07-04T05:41:23.530Z,97680.00
2023-07-04T05:45:24.550Z,97683.00
2023-07-04T05:49:25.558Z,97687.00
2023-07-04T05:53:29.073Z,97674.00
2023-07-04T05:57:32.181Z,97689.00
2023-07-04T06:01:38.013Z,97692.00
2023-07-04T06:05:42.348Z,97697.00
2023-07-04T06:09:43.496Z,97699.00
2023-07-04T06:13:44.911Z,97692.00
2023-07-04T06:17:46.249Z,97703.00
2023-07-04T06:21:47.740Z,97698.00
2023-07-04T06:25:52.646Z,97709.00
2023-07-04T06:29:55.757Z,97707.00
2023-07-04T06:33:57.103Z,97720.00
2023-07-04T06:37:58.327Z,97717.00
2023-07-04T06:41:59.377Z,97726.00
2023-07-04T06:46:01.524Z,97721.00
2023-07-04T06:50:02.995Z,97730.00
2023-07-04T06:54:04.261Z,97733.00
2023-07-04T06:58:05.671Z,97732.00
2023-07-04T07:02:07.595Z,97739.00
2023-07-04T07:06:10.917Z,97738.00
2023-07-04T07:10:12.132Z,97743.00
2023-07-04T07:14:13.132Z,97738.00
2023-07-04T07:18:14.394Z,97749.00
2023-07-04T07:22:15.550Z,97747.00
2023-07-04T07:26:22.606Z,97752.00
2023-07-04T07:30:22.646Z,97744.00
2023-07-04T07:34:23.697Z,97751.00
2023-07-04T07:38:24.764Z,97749.00
2023-07-04T07:42:25.961Z,97749.00
2023-07-04T07:46:27.206Z,97749.00
2023-07-04T07:50:28.272Z,97755.00
2023-07-04T07:54:29.589Z,97745.00
2023-07-04T07:58:31.696Z,97759.00
2023-07-04T08:02:33.307Z,97757.00
2023-07-04T08:06:40.075Z,97744.00
2023-07-04T08:10:43.630Z,97752.00
2023-07-04T08:14:44.662Z,97759.00
2023-07-04T08:18:46.452Z,97759.00
2023-07-04T08:22:48.235Z,97755.00
2023-07-04T08:26:52.812Z,97755.00
2023-07-04T08:30:54.210Z,97755.00
2023-07-04T08:34:56.305Z,97751.00
2023-07-04T08:38:57.367Z,97751.00
2023-07-04T08:43:01.783Z,97756.00
2023-07-04T08:47:03.674Z,97754.00
2023-07-04T08:51:05.124Z,97753.00
2023-07-04T08:55:10.283Z,97759.00
2023-07-04T08:59:33.559Z,97753.00
2023-07-04T09:03:41.693Z,97757.00
2023-07-04T09:07:55.814Z,97755.00
2023-07-04T09:11:57.023Z,97762.00
2023-07-04T09:16:01.598Z,97768.00
2023-07-04T09:20:05.649Z,97758.00
2023-07-04T09:24:06.675Z,97773.00
2023-07-04T09:28:08.343Z,97769.00
2023-07-04T09:32:10.792Z,97762.00
2023-07-04T09:36:14.144Z,97769.00
2023-07-04T09:40:15.369Z,97768.00
2023-07-04T09:44:31.765Z,97767.00
2023-07-04T09:48:33.555Z,97766.00
2023-07-04T09:52:34.854Z,97761.00
2023-07-04T09:56:36.980Z,97753.00
2023-07-04T10:00:38.034Z,97693.00
2023-07-04T10:04:41.396Z,97748.00
2023-07-04T10:08:55.035Z,97752.00
2023-07-04T10:12:57.286Z,97750.00
2023-07-04T10:17:02.348Z,97745.00
2023-07-04T10:21:06.833Z,97754.00
2023-07-04T10:25:14.092Z,97751.00
2023-07-04T10:29:17.357Z,97754.00
2023-07-04T10:33:34.808Z,97753.00
2023-07-04T10:37:38.039Z,97748.00
2023-07-04T10:41:42.871Z,97753.00
2023-07-04T10:46:00.181Z,97733.00
2023-07-04T10:49:53.654Z,97750.00
2023-07-04T10:53:54.819Z,97749.00
2023-07-04T10:58:00.011Z,97749.00
2023-07-04T11:02:07.915Z,97746.00
2023-07-04T11:06:12.332Z,97748.00
2023-07-04T11:10:14.684Z,97749.00
2023-07-04T11:14:22.408Z,97736.00
2023-07-04T11:18:29.969Z,97740.00
2023-07-04T11:22:43.505Z,97729.00
2023-07-04T11:26:50.521Z,97737.00
2023-07-04T11:30:53.354Z,97723.00
2023-07-04T11:34:58.503Z,97738.00
2023-07-04T11:39:05.518Z,97734.00
2023-07-04T11:43:10.435Z,97733.00
2023-07-04T11:47:15.774Z,97734.00
2023-07-04T11:51:18.563Z,97732.00
2023-07-04T11:55:32.389Z,97729.00
2023-07-04T11:59:41.445Z,97728.00
2023-07-04T12:04:00.054Z,97727.00
2023-07-04T12:08:05.093Z,97725.00
2023-07-04T12:12:08.262Z,97720.00
2023-07-04T12:16:10.711Z,97716.00
2023-07-04T12:20:15.767Z,97707.00
2023-07-04T12:24:23.069Z,97714.00
2023-07-04T12:28:26.494Z,97704.00
2023-07-04T12:32:29.175Z,97718.00
2023-07-04T12:36:32.372Z,97709.00
2023-07-04T12:40:34.574Z,97717.00
2023-07-04T12:44:41.892Z,97712.00
2023-07-04T12:52:47.992Z,97726.00
2023-07-04T12:56:49.517Z,97715.00
2023-07-04T13:01:03.497Z,97698.00
2023-07-04T13:05:05.992Z,97702.00
2023-07-04T13:09:08.237Z,97698.00
2023-07-04T13:13:28.193Z,97698.00
2023-07-04T13:17:29.264Z,97693.00
2023-07-04T13:21:34.235Z,97700.00
2023-07-04T13:25:42.690Z,97687.00
2023-07-04T13:30:22.199Z,97687.00
2023-07-04T13:34:00.896Z,97685.00
2023-07-04T13:42:07.120Z,97681.00
2023-07-04T13:46:08.389Z,97678.00
2023-07-04T13:50:12.004Z,97679.00
2023-07-04T13:54:13.801Z,97674.00
2023-07-04T13:58:14.903Z,97668.00
2023-07-04T14:06:21.397Z,97662.00
2023-07-04T14:10:33.699Z,97672.00
2023-07-04T14:22:33.143Z,97661.00
2023-07-04T14:26:34.200Z,97668.00
2023-07-04T14:30:40.627Z,97660.00
2023-07-04T14:34:41.711Z,97651.00
2023-07-04T14:38:42.812Z,97647.00
2023-07-04T14:42:48.546Z,97637.00
2023-07-04T14:46:46.884Z,97635.00
2023-07-04T14:50:47.899Z,97638.00
2023-07-04T14:54:48.971Z,97637.00
2023-07-04T14:58:50.137Z,97628.00
2023-07-04T15:02:51.485Z,97626.00
2023-07-04T15:06:52.693Z,97635.00
2023-07-04T15:10:53.816Z,97618.00
2023-07-04T15:14:54.836Z,97626.00
2023-07-04T15:18:55.881Z,97618.00
2023-07-04T15:22:56.955Z,97623.00
2023-07-04T15:26:58.186Z,97613.00
2023-07-04T15:30:59.400Z,97607.00
2023-07-04T15:35:00.809Z,97601.00
2023-07-04T15:39:02.157Z,97600.00
2023-07-04T15:43:03.237Z,97589.00
2023-07-04T15:47:04.796Z,97599.00
2023-07-04T15:51:07.195Z,97591.00
2023-07-04T15:55:12.576Z,97582.00
2023-07-04T15:59:13.872Z,97587.00
2023-07-04T16:03:15.692Z,97590.00
2023-07-04T16:07:17.046Z,97576.00
2023-07-04T16:11:20.123Z,97576.00
2023-07-04T16:15:21.167Z,97577.00
2023-07-04T16:19:22.537Z,97570.00
2023-07-04T16:23:23.564Z,97565.00
2023-07-04T16:27:24.745Z,97569.00
2023-07-04T16:31:25.976Z,97570.00
2023-07-04T16:35:27.086Z,97562.00
2023-07-04T16:39:28.278Z,97570.00
2023-07-04T16:43:30.536Z,97565.00
2023-07-04T16:47:31.722Z,97565.00
2023-07-04T16:51:32.773Z,97566.00
2023-07-04T16:55:37.224Z,97568.00
2023-07-04T16:59:38.786Z,97566.00
2023-07-04T17:03:40.023Z,97563.00
2023-07-04T17:07:41.115Z,97558.00
2023-07-04T17:11:42.415Z,97559.00
2023-07-04T17:15:50.712Z,97570.00
2023-07-04T17:19:52.570Z,97566.00
2023-07-04T17:23:55.146Z,97563.00
2023-07-04T17:27:58.118Z,97563.00
2023-07-04T17:31:59.530Z,97561.00
2023-07-04T17:36:09.457Z,97556.00
2023-07-04T17:40:11.375Z,97555.00
2023-07-04T17:44:12.571Z,97558.00
2023-07-04T17:48:13.651Z,97547.00
2023-07-04T17:52:15.133Z,97553.00
2023-07-04T17:56:20.179Z,97557.00
2023-07-04T18:00:21.564Z,97551.00
2023-07-04T18:04:22.745Z,97552.00
2023-07-04T18:08:23.915Z,97543.00
2023-07-04T18:12:28.223Z,97538.00
2023-07-04T18:16:32.113Z,97535.00
2023-07-04T18:20:33.272Z,97539.00
2023-07-04T18:24:35.291Z,97534.00
2023-07-04T18:28:39.517Z,97536.00
2023-07-04T18:32:40.851Z,97529.00
2023-07-04T18:36:43.138Z,97524.00
2023-07-04T18:40:46.224Z,97510.00
2023-07-04T18:44:47.381Z,97511.00
2023-07-04T18:48:48.595Z,97510.00
2023-07-04T18:52:49.676Z,97511.00
2023-07-04T18:56:50.995Z,97518.00
2023-07-04T19:00:52.321Z,97520.00
2023-07-04T19:04:53.607Z,97490.00
2023-07-04T19:08:54.988Z,97516.00
2023-07-04T19:12:56.129Z,97509.00
2023-07-04T19:16:59.175Z,97501.00
2023-07-04T19:21:02.182Z,97500.00
2023-07-04T19:25:05.231Z,97501.00
2023-07-04T19:29:06.188Z,97495.00
2023-07-04T19:33:07.542Z,97492.00
2023-07-04T19:37:09.791Z,97492.00
2023-07-04T19:41:11.366Z,97417.00
2023-07-04T19:45:12.662Z,97496.00
2023-07-04T19:49:13.647Z,97495.00
2023-07-04T19:53:14.666Z,97492.00
2023-07-04T19:57:15.671Z,97493.00
2023-07-04T20:01:19.730Z,97494.00
2023-07-04T20:05:20.705Z,97487.00
2023-07-04T20:09:22.141Z,97487.00
2023-07-04T20:13:28.242Z,97480.00
2023-07-04T20:17:29.497Z,97471.00
2023-07-04T20:21:30.632Z,97479.00
2023-07-04T20:25:33.987Z,97477.00
2023-07-04T20:29:34.979Z,97474.00
2023-07-04T20:33:36.573Z,97476.00
2023-07-04T20:37:37.695Z,97473.00
2023-07-04T20:41:38.664Z,97468.00
2023-07-04T20:45:40.190Z,97474.00
2023-07-04T20:49:42.264Z,97480.00
2023-07-04T20:53:44.696Z,97481.00
2023-07-04T20:57:49.714Z,97482.00
2023-07-04T21:01:53.411Z,97472.00
2023-07-04T21:05:55.465Z,97475.00
2023-07-04T21:09:56.725Z,97477.00
2023-07-04T21:13:57.896Z,97469.00
2023-07-04T21:17:59.082Z,97473.00
2023-07-04T21:22:00.153Z,97457.00
2023-07-04T21:26:01.581Z,97454.00
2023-07-04T21:30:03.530Z,97441.00
2023-07-04T21:34:04.695Z,97435.00
2023-07-04T21:38:08.278Z,97432.00
2023-07-04T21:42:10.494Z,97435.00
2023-07-04T21:46:11.641Z,97434.00
2023-07-04T21:50:12.646Z,97448.00
2023-07-04T21:54:13.696Z,97436.00
2023-07-04T21:58:14.857Z,97426.00
2023-07-04T22:02:16.627Z,97430.00
2023-07-04T22:06:17.644Z,97423.00
2023-07-04T22:10:19.006Z,97427.00
2023-07-04T22:14:35.573Z,97426.00
2023-07-04T22:18:22.894Z,97417.00
2023-07-04T22:22:23.890Z,97415.00
2023-07-04T22:26:25.164Z,97400.00
2023-07-04T22:30:26.419Z,97395.00
2023-07-04T22:34:27.568Z,97396.00
2023-07-04T22:38:28.701Z,97387.00
2023-07-04T22:42:30.414Z,97374.00
2023-07-04T22:46:32.490Z,97376.00
2023-07-04T22:50:34.694Z,97370.00
2023-07-04T22:54:35.729Z,97370.00
2023-07-04T22:58:37.262Z,97366.00
2023-07-04T23:02:38.435Z,97362.00
2023-07-04T23:06:39.496Z,97362.00
2023-07-04T23:10:41.034Z,97367.00
2023-07-04T23:14:42.286Z,97358.00
2023-07-04T23:18:45.863Z,97351.00
2023-07-04T23:22:47.339Z,97348.00
2023-07-04T23:26:48.310Z,97347.00
2023-07-04T23:30:50.199Z,97346.00
2023-07-04T23:34:51.360Z,97331.00
2023-07-04T23:38:52.933Z,97334.00
2023-07-04T23:42:54.084Z,97324.00
2023-07-04T23:46:55.255Z,97329.00
2023-07-04T23:50:56.439Z,97326.00
2023-07-04T23:54:57.486Z,97317.00
2023-07-04T23:58:58.710Z,97325.00
